sensor_id;sensor_type;location;lat;lon;timestamp;P1;durP1;ratioP1;P2;durP2;ratioP2
70071;SDS011;57434;42.794;23.302;2022-07-10T00:01:22;17.20;;;10.65;;
70071;SDS011;57434;42.794;23.302;2022-07-10T00:03:48;17.13;;;10.90;;
70071;SDS011;57434;42.794;23.302;2022-07-10T00:06:15;16.65;;;9.70;;
70071;SDS011;57434;42.794;23.302;2022-07-10T00:08:41;15.82;;;10.10;;
70071;SDS011;57434;42.794;23.302;2022-07-10T00:11:08;18.95;;;9.40;;
70071;SDS011;57434;42.794;23.302;2022-07-10T00:13:34;16.57;;;10.13;;
70071;SDS011;57434;42.794;23.302;2022-07-10T00:16:00;16.65;;;9.52;;
70071;SDS011;57434;42.794;23.302;2022-07-10T00:18:27;15.85;;;8.80;;
70071;SDS011;57434;42.794;23.302;2022-07-10T00:20:53;16.65;;;9.55;;
70071;SDS011;57434;42.794;23.302;2022-07-10T00:23:19;16.63;;;8.98;;
70071;SDS011;57434;42.794;23.302;2022-07-10T00:25:45;15.00;;;8.17;;
70071;SDS011;57434;42.794;23.302;2022-07-10T00:28:11;13.98;;;8.07;;
70071;SDS011;57434;42.794;23.302;2022-07-10T00:30:37;13.13;;;7.30;;
70071;SDS011;57434;42.794;23.302;2022-07-10T00:33:03;14.80;;;7.93;;
70071;SDS011;57434;42.794;23.302;2022-07-10T00:35:29;13.65;;;7.90;;
70071;SDS011;57434;42.794;23.302;2022-07-10T00:37:54;13.43;;;8.37;;
70071;SDS011;57434;42.794;23.302;2022-07-10T00:40:20;15.18;;;7.57;;
70071;SDS011;57434;42.794;23.302;2022-07-10T00:42:46;14.93;;;7.27;;
70071;SDS011;57434;42.794;23.302;2022-07-10T00:45:12;13.98;;;7.57;;
70071;SDS011;57434;42.794;23.302;2022-07-10T00:47:38;10.80;;;6.85;;
70071;SDS011;57434;42.794;23.302;2022-07-10T00:50:04;13.47;;;7.57;;
70071;SDS011;57434;42.794;23.302;2022-07-10T00:52:32;12.60;;;7.80;;
70071;SDS011;57434;42.794;23.302;2022-07-10T00:55:04;14.63;;;7.40;;
70071;SDS011;57434;42.794;23.302;2022-07-10T00:57:30;13.68;;;7.85;;
70071;SDS011;57434;42.794;23.302;2022-07-10T00:59:57;14.02;;;7.55;;
70071;SDS011;57434;42.794;23.302;2022-07-10T01:02:24;13.03;;;6.80;;
70071;SDS011;57434;42.794;23.302;2022-07-10T01:04:50;19.45;;;6.60;;
70071;SDS011;57434;42.794;23.302;2022-07-10T01:07:16;15.20;;;6.70;;
70071;SDS011;57434;42.794;23.302;2022-07-10T01:13:08;11.75;;;5.88;;
70071;SDS011;57434;42.794;23.302;2022-07-10T01:15:34;10.93;;;6.57;;
70071;SDS011;57434;42.794;23.302;2022-07-10T01:18:01;10.60;;;5.80;;
70071;SDS011;57434;42.794;23.302;2022-07-10T01:20:31;11.27;;;5.47;;
70071;SDS011;57434;42.794;23.302;2022-07-10T01:22:58;12.45;;;6.60;;
70071;SDS011;57434;42.794;23.302;2022-07-10T01:25:24;11.68;;;6.72;;
70071;SDS011;57434;42.794;23.302;2022-07-10T01:27:50;11.90;;;6.45;;
70071;SDS011;57434;42.794;23.302;2022-07-10T01:30:16;13.17;;;6.47;;
70071;SDS011;57434;42.794;23.302;2022-07-10T01:32:44;14.35;;;6.15;;
70071;SDS011;57434;42.794;23.302;2022-07-10T01:35:10;12.70;;;6.38;;
70071;SDS011;57434;42.794;23.302;2022-07-10T01:37:37;12.18;;;5.93;;
70071;SDS011;57434;42.794;23.302;2022-07-10T01:40:03;12.23;;;5.47;;
70071;SDS011;57434;42.794;23.302;2022-07-10T01:42:30;16.27;;;5.77;;
70071;SDS011;57434;42.794;23.302;2022-07-10T01:44:55;10.32;;;5.70;;
70071;SDS011;57434;42.794;23.302;2022-07-10T01:47:21;12.77;;;6.03;;
70071;SDS011;57434;42.794;23.302;2022-07-10T01:49:52;11.25;;;6.15;;
70071;SDS011;57434;42.794;23.302;2022-07-10T01:52:22;13.37;;;5.80;;
70071;SDS011;57434;42.794;23.302;2022-07-10T01:54:48;10.60;;;5.80;;
70071;SDS011;57434;42.794;23.302;2022-07-10T01:57:14;10.52;;;5.95;;
70071;SDS011;57434;42.794;23.302;2022-07-10T01:59:40;12.93;;;5.28;;
70071;SDS011;57434;42.794;23.302;2022-07-10T02:02:07;11.87;;;6.17;;
70071;SDS011;57434;42.794;23.302;2022-07-10T02:04:33;14.18;;;6.80;;
70071;SDS011;57434;42.794;23.302;2022-07-10T02:07:08;11.20;;;6.28;;
70071;SDS011;57434;42.794;23.302;2022-07-10T02:09:34;11.68;;;5.97;;
70071;SDS011;57434;42.794;23.302;2022-07-10T02:12:00;12.25;;;6.32;;
70071;SDS011;57434;42.794;23.302;2022-07-10T02:14:26;11.13;;;6.20;;
70071;SDS011;57434;42.794;23.302;2022-07-10T02:16:52;12.20;;;6.05;;
70071;SDS011;57434;42.794;23.302;2022-07-10T02:19:18;12.73;;;6.60;;
70071;SDS011;57434;42.794;23.302;2022-07-10T02:21:44;11.68;;;6.18;;
70071;SDS011;57434;42.794;23.302;2022-07-10T02:24:13;12.60;;;6.27;;
70071;SDS011;57434;42.794;23.302;2022-07-10T02:26:39;11.90;;;6.38;;
70071;SDS011;57434;42.794;23.302;2022-07-10T02:29:04;16.27;;;6.70;;
70071;SDS011;57434;42.794;23.302;2022-07-10T02:31:30;14.05;;;7.47;;
70071;SDS011;57434;42.794;23.302;2022-07-10T02:33:59;13.35;;;6.93;;
70071;SDS011;57434;42.794;23.302;2022-07-10T02:36:26;13.82;;;7.32;;
70071;SDS011;57434;42.794;23.302;2022-07-10T02:38:52;13.97;;;6.70;;
70071;SDS011;57434;42.794;23.302;2022-07-10T02:41:17;12.68;;;7.25;;
70071;SDS011;57434;42.794;23.302;2022-07-10T02:43:43;16.00;;;7.32;;
70071;SDS011;57434;42.794;23.302;2022-07-10T02:46:09;16.67;;;7.40;;
70071;SDS011;57434;42.794;23.302;2022-07-10T02:48:35;17.17;;;7.65;;
70071;SDS011;57434;42.794;23.302;2022-07-10T02:51:01;15.20;;;7.77;;
70071;SDS011;57434;42.794;23.302;2022-07-10T02:53:26;16.33;;;7.47;;
70071;SDS011;57434;42.794;23.302;2022-07-10T02:55:52;14.32;;;6.93;;
70071;SDS011;57434;42.794;23.302;2022-07-10T02:58:18;12.77;;;7.10;;
70071;SDS011;57434;42.794;23.302;2022-07-10T03:00:44;16.85;;;7.80;;
70071;SDS011;57434;42.794;23.302;2022-07-10T03:03:11;15.23;;;7.80;;
70071;SDS011;57434;42.794;23.302;2022-07-10T03:05:38;14.70;;;7.85;;
70071;SDS011;57434;42.794;23.302;2022-07-10T03:08:04;15.00;;;8.20;;
70071;SDS011;57434;42.794;23.302;2022-07-10T03:10:29;16.80;;;7.43;;
70071;SDS011;57434;42.794;23.302;2022-07-10T03:12:55;14.27;;;8.43;;
70071;SDS011;57434;42.794;23.302;2022-07-10T03:15:21;14.90;;;8.15;;
70071;SDS011;57434;42.794;23.302;2022-07-10T03:17:47;17.35;;;7.85;;
70071;SDS011;57434;42.794;23.302;2022-07-10T03:20:13;15.07;;;7.57;;
70071;SDS011;57434;42.794;23.302;2022-07-10T03:22:38;18.23;;;8.45;;
70071;SDS011;57434;42.794;23.302;2022-07-10T03:25:04;17.48;;;10.40;;
70071;SDS011;57434;42.794;23.302;2022-07-10T03:27:30;17.73;;;9.67;;
70071;SDS011;57434;42.794;23.302;2022-07-10T03:29:56;16.30;;;8.52;;
70071;SDS011;57434;42.794;23.302;2022-07-10T03:32:22;15.57;;;9.30;;
70071;SDS011;57434;42.794;23.302;2022-07-10T03:34:48;14.40;;;8.50;;
70071;SDS011;57434;42.794;23.302;2022-07-10T03:37:14;15.23;;;8.30;;
70071;SDS011;57434;42.794;23.302;2022-07-10T03:39:39;18.27;;;8.97;;
70071;SDS011;57434;42.794;23.302;2022-07-10T03:42:05;16.85;;;8.27;;
70071;SDS011;57434;42.794;23.302;2022-07-10T03:44:31;15.27;;;8.38;;
70071;SDS011;57434;42.794;23.302;2022-07-10T03:46:57;15.83;;;8.27;;
70071;SDS011;57434;42.794;23.302;2022-07-10T03:49:23;20.05;;;8.68;;
70071;SDS011;57434;42.794;23.302;2022-07-10T03:51:49;17.08;;;8.07;;
70071;SDS011;57434;42.794;23.302;2022-07-10T03:54:15;14.63;;;7.27;;
70071;SDS011;57434;42.794;23.302;2022-07-10T03:56:41;12.65;;;7.10;;
70071;SDS011;57434;42.794;23.302;2022-07-10T03:59:25;14.77;;;7.63;;
70071;SDS011;57434;42.794;23.302;2022-07-10T04:01:51;18.10;;;8.57;;
70071;SDS011;57434;42.794;23.302;2022-07-10T04:04:17;14.30;;;8.50;;
70071;SDS011;57434;42.794;23.302;2022-07-10T04:06:43;15.88;;;9.07;;
70071;SDS011;57434;42.794;23.302;2022-07-10T04:09:10;16.50;;;9.35;;
70071;SDS011;57434;42.794;23.302;2022-07-10T04:11:36;17.73;;;9.87;;
70071;SDS011;57434;42.794;23.302;2022-07-10T04:14:02;20.05;;;9.98;;
70071;SDS011;57434;42.794;23.302;2022-07-10T04:16:27;16.03;;;10.00;;
70071;SDS011;57434;42.794;23.302;2022-07-10T04:18:53;18.65;;;10.18;;
70071;SDS011;57434;42.794;23.302;2022-07-10T04:21:19;20.53;;;10.93;;
70071;SDS011;57434;42.794;23.302;2022-07-10T04:23:45;17.17;;;9.60;;
70071;SDS011;57434;42.794;23.302;2022-07-10T04:26:11;17.48;;;10.27;;
70071;SDS011;57434;42.794;23.302;2022-07-10T04:28:36;17.05;;;10.13;;
70071;SDS011;57434;42.794;23.302;2022-07-10T04:31:02;19.80;;;11.30;;
70071;SDS011;57434;42.794;23.302;2022-07-10T04:33:28;20.55;;;10.02;;
70071;SDS011;57434;42.794;23.302;2022-07-10T04:35:53;18.67;;;10.13;;
70071;SDS011;57434;42.794;23.302;2022-07-10T04:38:19;19.50;;;10.45;;
70071;SDS011;57434;42.794;23.302;2022-07-10T04:40:45;18.27;;;10.23;;
70071;SDS011;57434;42.794;23.302;2022-07-10T04:43:11;17.40;;;10.35;;
70071;SDS011;57434;42.794;23.302;2022-07-10T04:45:37;17.80;;;9.73;;
70071;SDS011;57434;42.794;23.302;2022-07-10T04:48:04;20.83;;;10.20;;
70071;SDS011;57434;42.794;23.302;2022-07-10T04:50:30;20.65;;;10.77;;
70071;SDS011;57434;42.794;23.302;2022-07-10T04:52:56;18.77;;;10.13;;
70071;SDS011;57434;42.794;23.302;2022-07-10T04:55:22;22.98;;;11.07;;
70071;SDS011;57434;42.794;23.302;2022-07-10T04:57:48;17.13;;;10.13;;
70071;SDS011;57434;42.794;23.302;2022-07-10T05:00:14;23.23;;;11.23;;
70071;SDS011;57434;42.794;23.302;2022-07-10T05:02:41;17.90;;;10.90;;
70071;SDS011;57434;42.794;23.302;2022-07-10T05:05:07;19.45;;;11.23;;
70071;SDS011;57434;42.794;23.302;2022-07-10T05:07:33;17.40;;;10.77;;
70071;SDS011;57434;42.794;23.302;2022-07-10T05:09:59;19.45;;;11.63;;
70071;SDS011;57434;42.794;23.302;2022-07-10T05:12:25;18.92;;;11.85;;
70071;SDS011;57434;42.794;23.302;2022-07-10T05:14:51;22.73;;;12.90;;
70071;SDS011;57434;42.794;23.302;2022-07-10T05:17:17;27.25;;;13.10;;
70071;SDS011;57434;42.794;23.302;2022-07-10T05:19:43;20.55;;;11.48;;
70071;SDS011;57434;42.794;23.302;2022-07-10T05:22:09;22.47;;;11.90;;
70071;SDS011;57434;42.794;23.302;2022-07-10T05:24:35;20.08;;;11.30;;
70071;SDS011;57434;42.794;23.302;2022-07-10T05:27:01;20.85;;;11.27;;
70071;SDS011;57434;42.794;23.302;2022-07-10T05:29:27;21.65;;;11.48;;
70071;SDS011;57434;42.794;23.302;2022-07-10T05:31:53;20.97;;;12.33;;
70071;SDS011;57434;42.794;23.302;2022-07-10T05:34:19;20.05;;;12.68;;
70071;SDS011;57434;42.794;23.302;2022-07-10T05:36:44;20.02;;;11.82;;
70071;SDS011;57434;42.794;23.302;2022-07-10T05:39:10;20.17;;;12.03;;
70071;SDS011;57434;42.794;23.302;2022-07-10T05:41:36;19.40;;;11.57;;
70071;SDS011;57434;42.794;23.302;2022-07-10T05:44:02;17.90;;;11.07;;
70071;SDS011;57434;42.794;23.302;2022-07-10T05:46:28;15.65;;;9.98;;
70071;SDS011;57434;42.794;23.302;2022-07-10T05:48:54;16.13;;;11.30;;
70071;SDS011;57434;42.794;23.302;2022-07-10T05:51:20;18.60;;;11.20;;
70071;SDS011;57434;42.794;23.302;2022-07-10T05:53:46;19.27;;;11.87;;
70071;SDS011;57434;42.794;23.302;2022-07-10T05:56:11;18.15;;;10.75;;
70071;SDS011;57434;42.794;23.302;2022-07-10T05:58:37;16.77;;;10.53;;
70071;SDS011;57434;42.794;23.302;2022-07-10T06:01:03;15.93;;;8.70;;
70071;SDS011;57434;42.794;23.302;2022-07-10T06:03:29;13.93;;;8.75;;
70071;SDS011;57434;42.794;23.302;2022-07-10T06:05:55;13.10;;;8.75;;
70071;SDS011;57434;42.794;23.302;2022-07-10T06:08:21;15.00;;;8.20;;
70071;SDS011;57434;42.794;23.302;2022-07-10T06:10:47;12.48;;;8.50;;
70071;SDS011;57434;42.794;23.302;2022-07-10T06:13:12;12.70;;;8.03;;
70071;SDS011;57434;42.794;23.302;2022-07-10T06:15:38;12.73;;;8.45;;
70071;SDS011;57434;42.794;23.302;2022-07-10T06:18:04;10.10;;;7.28;;
70071;SDS011;57434;42.794;23.302;2022-07-10T06:20:30;13.07;;;8.97;;
70071;SDS011;57434;42.794;23.302;2022-07-10T06:22:56;12.60;;;8.43;;
70071;SDS011;57434;42.794;23.302;2022-07-10T06:25:22;12.45;;;7.40;;
70071;SDS011;57434;42.794;23.302;2022-07-10T06:27:48;10.75;;;6.93;;
70071;SDS011;57434;42.794;23.302;2022-07-10T06:30:14;12.73;;;7.40;;
70071;SDS011;57434;42.794;23.302;2022-07-10T06:32:40;15.73;;;7.88;;
70071;SDS011;57434;42.794;23.302;2022-07-10T06:35:07;12.13;;;7.60;;
70071;SDS011;57434;42.794;23.302;2022-07-10T06:37:33;11.85;;;6.68;;
70071;SDS011;57434;42.794;23.302;2022-07-10T06:39:59;9.95;;;6.47;;
70071;SDS011;57434;42.794;23.302;2022-07-10T06:42:25;10.60;;;6.70;;
70071;SDS011;57434;42.794;23.302;2022-07-10T06:44:51;9.98;;;6.30;;
70071;SDS011;57434;42.794;23.302;2022-07-10T06:47:17;10.80;;;6.27;;
70071;SDS011;57434;42.794;23.302;2022-07-10T06:50:03;8.67;;;5.90;;
70071;SDS011;57434;42.794;23.302;2022-07-10T06:52:33;10.52;;;6.15;;
70071;SDS011;57434;42.794;23.302;2022-07-10T06:55:00;10.38;;;6.03;;
70071;SDS011;57434;42.794;23.302;2022-07-10T06:57:27;11.57;;;6.00;;
70071;SDS011;57434;42.794;23.302;2022-07-10T06:59:53;8.68;;;5.13;;
70071;SDS011;57434;42.794;23.302;2022-07-10T07:02:19;9.63;;;6.60;;
70071;SDS011;57434;42.794;23.302;2022-07-10T07:04:45;10.05;;;6.00;;
70071;SDS011;57434;42.794;23.302;2022-07-10T07:07:11;9.25;;;6.05;;
70071;SDS011;57434;42.794;23.302;2022-07-10T07:09:41;11.13;;;6.07;;
70071;SDS011;57434;42.794;23.302;2022-07-10T07:12:08;9.73;;;5.88;;
70071;SDS011;57434;42.794;23.302;2022-07-10T07:14:34;9.00;;;5.60;;
70071;SDS011;57434;42.794;23.302;2022-07-10T07:17:01;11.95;;;5.53;;
70071;SDS011;57434;42.794;23.302;2022-07-10T07:19:37;11.35;;;5.47;;
70071;SDS011;57434;42.794;23.302;2022-07-10T07:22:22;8.98;;;5.70;;
70071;SDS011;57434;42.794;23.302;2022-07-10T07:25:07;7.25;;;4.95;;
70071;SDS011;57434;42.794;23.302;2022-07-10T07:27:34;10.13;;;4.87;;
70071;SDS011;57434;42.794;23.302;2022-07-10T07:30:02;8.52;;;4.95;;
70071;SDS011;57434;42.794;23.302;2022-07-10T07:32:33;9.38;;;4.40;;
70071;SDS011;57434;42.794;23.302;2022-07-10T07:34:59;8.30;;;4.45;;
70071;SDS011;57434;42.794;23.302;2022-07-10T07:40:03;9.10;;;4.50;;
70071;SDS011;57434;42.794;23.302;2022-07-10T07:42:30;7.45;;;4.40;;
70071;SDS011;57434;42.794;23.302;2022-07-10T07:44:56;8.85;;;4.28;;
70071;SDS011;57434;42.794;23.302;2022-07-10T07:47:22;6.85;;;4.18;;
70071;SDS011;57434;42.794;23.302;2022-07-10T07:49:47;8.07;;;4.17;;
70071;SDS011;57434;42.794;23.302;2022-07-10T07:52:13;8.75;;;3.97;;
70071;SDS011;57434;42.794;23.302;2022-07-10T07:54:39;7.43;;;4.20;;
70071;SDS011;57434;42.794;23.302;2022-07-10T07:57:05;6.68;;;4.10;;
70071;SDS011;57434;42.794;23.302;2022-07-10T07:59:31;7.43;;;4.53;;
70071;SDS011;57434;42.794;23.302;2022-07-10T08:01:57;7.57;;;4.10;;
70071;SDS011;57434;42.794;23.302;2022-07-10T08:04:22;6.53;;;3.90;;
70071;SDS011;57434;42.794;23.302;2022-07-10T08:06:48;8.45;;;4.07;;
70071;SDS011;57434;42.794;23.302;2022-07-10T08:09:20;7.70;;;3.80;;
70071;SDS011;57434;42.794;23.302;2022-07-10T08:11:46;6.50;;;4.00;;
70071;SDS011;57434;42.794;23.302;2022-07-10T08:14:12;9.32;;;4.57;;
70071;SDS011;57434;42.794;23.302;2022-07-10T08:16:39;6.68;;;4.35;;
70071;SDS011;57434;42.794;23.302;2022-07-10T08:19:05;7.20;;;4.18;;
70071;SDS011;57434;42.794;23.302;2022-07-10T08:21:31;6.63;;;3.83;;
70071;SDS011;57434;42.794;23.302;2022-07-10T08:23:59;6.37;;;3.63;;
70071;SDS011;57434;42.794;23.302;2022-07-10T08:26:25;6.78;;;4.30;;
70071;SDS011;57434;42.794;23.302;2022-07-10T08:28:51;6.55;;;3.65;;
70071;SDS011;57434;42.794;23.302;2022-07-10T08:31:17;7.37;;;3.50;;
70071;SDS011;57434;42.794;23.302;2022-07-10T08:33:42;5.10;;;2.90;;
70071;SDS011;57434;42.794;23.302;2022-07-10T08:36:08;6.93;;;3.53;;
70071;SDS011;57434;42.794;23.302;2022-07-10T08:38:34;6.13;;;3.42;;
70071;SDS011;57434;42.794;23.302;2022-07-10T08:41:00;7.80;;;3.80;;
70071;SDS011;57434;42.794;23.302;2022-07-10T08:43:30;5.72;;;3.45;;
70071;SDS011;57434;42.794;23.302;2022-07-10T08:45:56;6.68;;;3.53;;
70071;SDS011;57434;42.794;23.302;2022-07-10T08:48:24;5.60;;;3.60;;
70071;SDS011;57434;42.794;23.302;2022-07-10T08:50:53;6.28;;;3.72;;
70071;SDS011;57434;42.794;23.302;2022-07-10T08:55:55;5.32;;;3.30;;
70071;SDS011;57434;42.794;23.302;2022-07-10T08:58:22;7.40;;;3.25;;
70071;SDS011;57434;42.794;23.302;2022-07-10T09:00:48;6.93;;;3.50;;
70071;SDS011;57434;42.794;23.302;2022-07-10T09:03:14;6.65;;;3.33;;
70071;SDS011;57434;42.794;23.302;2022-07-10T09:05:40;5.53;;;3.30;;
70071;SDS011;57434;42.794;23.302;2022-07-10T09:08:25;6.35;;;3.47;;
70071;SDS011;57434;42.794;23.302;2022-07-10T09:11:17;8.40;;;3.60;;
70071;SDS011;57434;42.794;23.302;2022-07-10T09:13:54;6.17;;;3.37;;
70071;SDS011;57434;42.794;23.302;2022-07-10T09:16:28;9.30;;;3.28;;
70071;SDS011;57434;42.794;23.302;2022-07-10T09:19:25;6.90;;;3.20;;
70071;SDS011;57434;42.794;23.302;2022-07-10T09:19:27;6.90;;;3.20;;
70071;SDS011;57434;42.794;23.302;2022-07-10T09:22:07;6.85;;;3.38;;
70071;SDS011;57434;42.794;23.302;2022-07-10T09:27:07;5.97;;;3.30;;
70071;SDS011;57434;42.794;23.302;2022-07-10T09:29:52;5.63;;;2.88;;
70071;SDS011;57434;42.794;23.302;2022-07-10T09:32:23;11.88;;;3.22;;
70071;SDS011;57434;42.794;23.302;2022-07-10T09:34:50;6.28;;;3.30;;
70071;SDS011;57434;42.794;23.302;2022-07-10T09:37:37;5.32;;;2.90;;
70071;SDS011;57434;42.794;23.302;2022-07-10T09:40:05;6.20;;;2.97;;
70071;SDS011;57434;42.794;23.302;2022-07-10T09:42:39;8.35;;;2.95;;
70071;SDS011;57434;42.794;23.302;2022-07-10T09:50:34;5.63;;;3.00;;
70071;SDS011;57434;42.794;23.302;2022-07-10T09:53:05;5.53;;;3.03;;
70071;SDS011;57434;42.794;23.302;2022-07-10T09:55:33;6.05;;;3.08;;
70071;SDS011;57434;42.794;23.302;2022-07-10T10:00:27;6.13;;;2.88;;
70071;SDS011;57434;42.794;23.302;2022-07-10T10:03:12;5.18;;;3.00;;
70071;SDS011;57434;42.794;23.302;2022-07-10T10:05:53;5.70;;;2.90;;
70071;SDS011;57434;42.794;23.302;2022-07-10T10:10:47;6.93;;;3.10;;
70071;SDS011;57434;42.794;23.302;2022-07-10T10:13:21;6.32;;;3.00;;
70071;SDS011;57434;42.794;23.302;2022-07-10T10:15:48;6.97;;;2.90;;
70071;SDS011;57434;42.794;23.302;2022-07-10T10:18:19;5.80;;;3.28;;
70071;SDS011;57434;42.794;23.302;2022-07-10T10:20:49;6.32;;;3.20;;
70071;SDS011;57434;42.794;23.302;2022-07-10T10:23:17;4.90;;;2.55;;
70071;SDS011;57434;42.794;23.302;2022-07-10T10:25:59;5.07;;;2.70;;
70071;SDS011;57434;42.794;23.302;2022-07-10T10:28:25;5.40;;;2.80;;
70071;SDS011;57434;42.794;23.302;2022-07-10T10:30:55;5.85;;;3.10;;
70071;SDS011;57434;42.794;23.302;2022-07-10T10:36:05;5.10;;;3.00;;
70071;SDS011;57434;42.794;23.302;2022-07-10T10:41:37;7.60;;;4.53;;
70071;SDS011;57434;42.794;23.302;2022-07-10T10:49:15;9.90;;;5.72;;
70071;SDS011;57434;42.794;23.302;2022-07-10T10:51:57;6.05;;;3.35;;
70071;SDS011;57434;42.794;23.302;2022-07-10T10:54:30;7.60;;;4.53;;
70071;SDS011;57434;42.794;23.302;2022-07-10T10:57:17;12.50;;;5.22;;
70071;SDS011;57434;42.794;23.302;2022-07-10T10:59:50;6.53;;;3.47;;
70071;SDS011;57434;42.794;23.302;2022-07-10T11:02:28;11.68;;;4.45;;
70071;SDS011;57434;42.794;23.302;2022-07-10T11:05:46;8.10;;;3.75;;
70071;SDS011;57434;42.794;23.302;2022-07-10T11:07:58;8.77;;;3.70;;
70071;SDS011;57434;42.794;23.302;2022-07-10T11:10:32;7.72;;;3.10;;
70071;SDS011;57434;42.794;23.302;2022-07-10T11:15:36;6.35;;;3.10;;
70071;SDS011;57434;42.794;23.302;2022-07-10T11:18:11;9.95;;;3.67;;
70071;SDS011;57434;42.794;23.302;2022-07-10T11:20:39;9.10;;;3.73;;
70071;SDS011;57434;42.794;23.302;2022-07-10T11:26:05;9.23;;;5.13;;
70071;SDS011;57434;42.794;23.302;2022-07-10T11:28:50;9.57;;;3.70;;
70071;SDS011;57434;42.794;23.302;2022-07-10T11:31:21;13.10;;;7.43;;
70071;SDS011;57434;42.794;23.302;2022-07-10T11:33:49;8.00;;;4.30;;
70071;SDS011;57434;42.794;23.302;2022-07-10T11:36:17;6.35;;;3.08;;
70071;SDS011;57434;42.794;23.302;2022-07-10T11:38:47;5.88;;;3.10;;
70071;SDS011;57434;42.794;23.302;2022-07-10T11:41:20;6.50;;;3.70;;
70071;SDS011;57434;42.794;23.302;2022-07-10T11:43:49;7.57;;;3.83;;
70071;SDS011;57434;42.794;23.302;2022-07-10T11:46:16;6.40;;;2.87;;
70071;SDS011;57434;42.794;23.302;2022-07-10T11:48:43;7.85;;;2.83;;
70071;SDS011;57434;42.794;23.302;2022-07-10T11:51:43;8.73;;;2.95;;
70071;SDS011;57434;42.794;23.302;2022-07-10T11:54:06;6.00;;;2.97;;
70071;SDS011;57434;42.794;23.302;2022-07-10T11:56:34;5.25;;;3.03;;
70071;SDS011;57434;42.794;23.302;2022-07-10T11:59:05;8.13;;;2.47;;
70071;SDS011;57434;42.794;23.302;2022-07-10T12:01:33;6.45;;;2.50;;
70071;SDS011;57434;42.794;23.302;2022-07-10T12:04:05;6.32;;;2.40;;
70071;SDS011;57434;42.794;23.302;2022-07-10T12:06:34;5.00;;;2.45;;
70071;SDS011;57434;42.794;23.302;2022-07-10T12:09:06;5.07;;;2.88;;
70071;SDS011;57434;42.794;23.302;2022-07-10T12:11:36;9.63;;;4.10;;
70071;SDS011;57434;42.794;23.302;2022-07-10T12:16:45;6.13;;;2.25;;
70071;SDS011;57434;42.794;23.302;2022-07-10T12:19:12;8.95;;;2.10;;
70071;SDS011;57434;42.794;23.302;2022-07-10T12:21:41;6.25;;;2.13;;
70071;SDS011;57434;42.794;23.302;2022-07-10T12:24:09;4.67;;;2.50;;
70071;SDS011;57434;42.794;23.302;2022-07-10T12:26:36;9.68;;;3.03;;
70071;SDS011;57434;42.794;23.302;2022-07-10T12:29:03;47.08;;;16.80;;
70071;SDS011;57434;42.794;23.302;2022-07-10T12:31:31;24.30;;;8.85;;
70071;SDS011;57434;42.794;23.302;2022-07-10T12:34:03;10.73;;;4.80;;
70071;SDS011;57434;42.794;23.302;2022-07-10T12:39:12;6.55;;;2.15;;
70071;SDS011;57434;42.794;23.302;2022-07-10T12:41:56;6.10;;;2.38;;
70071;SDS011;57434;42.794;23.302;2022-07-10T12:47:19;4.35;;;1.90;;
70071;SDS011;57434;42.794;23.302;2022-07-10T12:49:53;11.00;;;5.90;;
70071;SDS011;57434;42.794;23.302;2022-07-10T12:52:31;14.38;;;5.00;;
70071;SDS011;57434;42.794;23.302;2022-07-10T12:55:11;9.68;;;4.20;;
70071;SDS011;57434;42.794;23.302;2022-07-10T13:00:15;5.35;;;1.77;;
70071;SDS011;57434;42.794;23.302;2022-07-10T13:02:44;7.50;;;2.70;;
70071;SDS011;57434;42.794;23.302;2022-07-10T13:05:24;6.97;;;2.35;;
70071;SDS011;57434;42.794;23.302;2022-07-10T13:07:52;7.43;;;2.05;;
70071;SDS011;57434;42.794;23.302;2022-07-10T13:10:18;3.00;;;1.20;;
70071;SDS011;57434;42.794;23.302;2022-07-10T13:12:44;7.85;;;2.20;;
70071;SDS011;57434;42.794;23.302;2022-07-10T13:15:10;5.80;;;1.80;;
70071;SDS011;57434;42.794;23.302;2022-07-10T13:17:44;5.13;;;1.75;;
70071;SDS011;57434;42.794;23.302;2022-07-10T13:20:10;4.30;;;2.00;;
70071;SDS011;57434;42.794;23.302;2022-07-10T13:22:36;7.95;;;2.38;;
70071;SDS011;57434;42.794;23.302;2022-07-10T13:25:01;3.97;;;1.50;;
70071;SDS011;57434;42.794;23.302;2022-07-10T13:27:28;4.40;;;1.63;;
70071;SDS011;57434;42.794;23.302;2022-07-10T13:29:54;5.70;;;1.60;;
70071;SDS011;57434;42.794;23.302;2022-07-10T13:32:19;4.83;;;1.50;;
70071;SDS011;57434;42.794;23.302;2022-07-10T13:34:45;4.72;;;1.20;;
70071;SDS011;57434;42.794;23.302;2022-07-10T13:37:11;4.40;;;1.80;;
70071;SDS011;57434;42.794;23.302;2022-07-10T13:39:38;5.80;;;1.40;;
70071;SDS011;57434;42.794;23.302;2022-07-10T13:42:04;4.95;;;1.60;;
70071;SDS011;57434;42.794;23.302;2022-07-10T13:44:30;3.23;;;1.20;;
70071;SDS011;57434;42.794;23.302;2022-07-10T13:46:56;3.97;;;1.33;;
70071;SDS011;57434;42.794;23.302;2022-07-10T13:49:22;3.72;;;1.25;;
70071;SDS011;57434;42.794;23.302;2022-07-10T13:51:48;4.60;;;1.40;;
70071;SDS011;57434;42.794;23.302;2022-07-10T13:54:14;3.47;;;1.10;;
70071;SDS011;57434;42.794;23.302;2022-07-10T13:56:39;4.03;;;1.33;;
70071;SDS011;57434;42.794;23.302;2022-07-10T13:59:08;4.32;;;1.50;;
70071;SDS011;57434;42.794;23.302;2022-07-10T14:01:34;4.00;;;1.30;;
70071;SDS011;57434;42.794;23.302;2022-07-10T14:04:00;5.13;;;1.20;;
70071;SDS011;57434;42.794;23.302;2022-07-10T14:06:26;3.45;;;1.50;;
70071;SDS011;57434;42.794;23.302;2022-07-10T14:08:51;4.07;;;1.58;;
70071;SDS011;57434;42.794;23.302;2022-07-10T14:11:17;5.10;;;1.50;;
70071;SDS011;57434;42.794;23.302;2022-07-10T14:13:43;3.28;;;1.00;;
70071;SDS011;57434;42.794;23.302;2022-07-10T14:16:09;3.80;;;1.50;;
70071;SDS011;57434;42.794;23.302;2022-07-10T14:18:35;6.50;;;1.57;;
70071;SDS011;57434;42.794;23.302;2022-07-10T14:21:05;3.70;;;1.50;;
70071;SDS011;57434;42.794;23.302;2022-07-10T14:23:36;3.90;;;1.60;;
70071;SDS011;57434;42.794;23.302;2022-07-10T14:26:04;4.60;;;1.43;;
70071;SDS011;57434;42.794;23.302;2022-07-10T14:28:31;4.93;;;1.65;;
70071;SDS011;57434;42.794;23.302;2022-07-10T14:30:57;3.20;;;1.55;;
70071;SDS011;57434;42.794;23.302;2022-07-10T14:33:25;4.22;;;1.60;;
70071;SDS011;57434;42.794;23.302;2022-07-10T14:35:52;4.63;;;1.70;;
70071;SDS011;57434;42.794;23.302;2022-07-10T14:38:17;4.23;;;1.97;;
70071;SDS011;57434;42.794;23.302;2022-07-10T14:40:43;5.22;;;1.73;;
70071;SDS011;57434;42.794;23.302;2022-07-10T14:43:09;4.25;;;1.50;;
70071;SDS011;57434;42.794;23.302;2022-07-10T14:45:35;5.00;;;1.60;;
70071;SDS011;57434;42.794;23.302;2022-07-10T14:48:01;4.20;;;1.60;;
70071;SDS011;57434;42.794;23.302;2022-07-10T14:50:27;3.37;;;1.50;;
70071;SDS011;57434;42.794;23.302;2022-07-10T14:52:52;4.03;;;1.80;;
70071;SDS011;57434;42.794;23.302;2022-07-10T14:55:18;5.07;;;1.60;;
70071;SDS011;57434;42.794;23.302;2022-07-10T14:57:44;3.77;;;1.67;;
70071;SDS011;57434;42.794;23.302;2022-07-10T15:00:10;4.20;;;1.63;;
70071;SDS011;57434;42.794;23.302;2022-07-10T15:02:36;5.20;;;1.60;;
70071;SDS011;57434;42.794;23.302;2022-07-10T15:05:02;4.88;;;1.40;;
70071;SDS011;57434;42.794;23.302;2022-07-10T15:07:28;3.33;;;1.40;;
70071;SDS011;57434;42.794;23.302;2022-07-10T15:09:54;4.35;;;1.52;;
70071;SDS011;57434;42.794;23.302;2022-07-10T15:12:20;4.20;;;1.50;;
70071;SDS011;57434;42.794;23.302;2022-07-10T15:14:46;6.15;;;1.50;;
70071;SDS011;57434;42.794;23.302;2022-07-10T15:17:12;5.60;;;1.97;;